createdAt,value
2023-02-02T00:01:51.566Z,5.50
2023-02-02T00:04:32.118Z,5.40
2023-02-02T00:06:59.786Z,5.40
2023-02-02T00:09:29.179Z,5.40
2023-02-02T00:11:57.523Z,5.40
2023-02-02T00:14:25.318Z,5.40
2023-02-02T00:16:56.912Z,5.40
2023-02-02T00:19:26.734Z,5.30
2023-02-02T00:21:55.101Z,5.30
2023-02-02T00:24:23.430Z,5.40
2023-02-02T00:26:54.606Z,5.40
2023-02-02T00:29:24.974Z,5.40
2023-02-02T00:31:52.643Z,5.40
2023-02-02T00:34:20.665Z,5.40
2023-02-02T00:36:48.478Z,5.50
2023-02-02T00:39:18.692Z,5.50
2023-02-02T00:58:59.841Z,5.60
2023-02-02T01:01:26.922Z,5.60
2023-02-02T01:03:53.942Z,5.70
2023-02-02T01:06:21.330Z,5.70
2023-02-02T01:08:48.337Z,5.70
2023-02-02T01:11:16.480Z,5.70
2023-02-02T01:13:44.214Z,5.70
2023-02-02T01:16:11.775Z,5.80
2023-02-02T01:18:39.021Z,5.80
2023-02-02T01:21:11.584Z,5.90
2023-02-02T01:23:39.272Z,5.90
2023-02-02T01:26:09.559Z,5.90
2023-02-02T01:28:37.025Z,5.90
2023-02-02T01:31:13.567Z,6.00
2023-02-02T01:33:41.263Z,6.00
2023-02-02T01:36:12.638Z,6.00
2023-02-02T01:38:40.250Z,6.00
2023-02-02T01:41:07.788Z,6.10
2023-02-02T01:43:44.144Z,6.00
2023-02-02T01:46:22.821Z,6.10
2023-02-02T01:48:55.382Z,6.10
2023-02-02T01:51:26.375Z,6.10
2023-02-02T01:53:55.321Z,6.10
2023-02-02T01:56:33.123Z,6.10
2023-02-02T01:59:00.998Z,6.10
2023-02-02T02:01:28.289Z,6.10
2023-02-02T02:03:56.403Z,6.10
2023-02-02T02:06:25.988Z,6.20
2023-02-02T02:09:03.707Z,6.10
2023-02-02T02:11:32.419Z,6.10
2023-02-02T02:14:22.848Z,6.10
2023-02-02T02:17:10.169Z,6.10
2023-02-02T02:20:26.517Z,6.00
2023-02-02T02:25:33.390Z,6.10
2023-02-02T02:28:13.523Z,6.00
2023-02-02T02:30:46.358Z,6.00
2023-02-02T02:33:20.079Z,6.00
2023-02-02T02:38:45.138Z,6.00
2023-02-02T02:41:22.622Z,6.00
2023-02-02T02:43:59.052Z,6.10
2023-02-02T02:46:27.892Z,6.10
2023-02-02T02:48:58.638Z,6.10
2023-02-02T02:51:51.442Z,6.10
2023-02-02T02:54:38.237Z,6.10
2023-02-02T02:57:26.759Z,6.10
2023-02-02T03:00:04.934Z,6.10
2023-02-02T03:02:46.986Z,6.10
2023-02-02T03:05:43.470Z,6.10
2023-02-02T03:08:21.470Z,6.10
2023-02-02T03:10:48.880Z,6.20
2023-02-02T03:13:17.105Z,6.20
2023-02-02T03:15:45.786Z,6.30
2023-02-02T03:18:19.844Z,6.30
2023-02-02T03:20:47.163Z,6.40
2023-02-02T03:23:14.769Z,6.40
2023-02-02T03:25:42.194Z,6.50
2023-02-02T03:28:09.339Z,6.50
2023-02-02T03:30:38.377Z,6.50
2023-02-02T03:33:06.151Z,6.60
2023-02-02T03:35:33.204Z,6.60
2023-02-02T03:38:00.271Z,6.60
2023-02-02T03:40:28.793Z,6.70
2023-02-02T03:42:59.628Z,6.70
2023-02-02T03:45:32.337Z,6.80
2023-02-02T03:47:59.316Z,6.80
2023-02-02T03:50:26.401Z,6.80
2023-02-02T03:52:55.254Z,6.90
2023-02-02T03:55:22.542Z,6.90
2023-02-02T03:57:49.931Z,6.90
2023-02-02T04:00:17.194Z,7.00
2023-02-02T04:02:44.252Z,7.00
2023-02-02T04:05:11.243Z,6.90
2023-02-02T04:07:38.233Z,6.90
2023-02-02T04:10:05.550Z,6.90
2023-02-02T04:12:32.486Z,6.90
2023-02-02T04:17:40.139Z,6.80
2023-02-02T04:20:07.748Z,6.80
2023-02-02T04:22:34.724Z,6.70
2023-02-02T04:25:01.648Z,6.70
2023-02-02T04:27:31.617Z,6.60
2023-02-02T04:29:58.797Z,6.50
2023-02-02T04:32:25.909Z,6.60
2023-02-02T04:34:53.146Z,6.60
2023-02-02T04:37:20.220Z,6.50
2023-02-02T04:39:49.010Z,6.50
2023-02-02T04:42:16.049Z,6.50
2023-02-02T04:44:45.876Z,6.50
2023-02-02T04:49:44.882Z,6.50
2023-02-02T04:54:39.977Z,6.50
2023-02-02T04:57:06.959Z,6.40
2023-02-02T04:59:34.131Z,6.40
2023-02-02T05:02:02.220Z,6.40
2023-02-02T05:04:29.266Z,6.40
2023-02-02T05:09:36.324Z,6.30
2023-02-02T05:12:03.609Z,6.30
2023-02-02T05:14:30.731Z,6.30
2023-02-02T05:16:57.886Z,6.30
2023-02-02T05:19:24.932Z,6.30
2023-02-02T05:21:51.966Z,6.30
2023-02-02T05:26:48.335Z,6.20
2023-02-02T05:29:15.337Z,6.20
2023-02-02T05:31:45.307Z,6.20
2023-02-02T05:34:13.504Z,6.20
2023-02-02T05:36:40.501Z,6.20
2023-02-02T05:39:07.647Z,6.20
2023-02-02T05:41:34.655Z,6.20
2023-02-02T05:44:02.020Z,6.20
2023-02-02T05:46:30.026Z,6.20
2023-02-02T05:49:00.284Z,6.20
2023-02-02T05:51:33.445Z,6.10
2023-02-02T05:54:01.139Z,6.20
2023-02-02T05:56:28.315Z,6.10
2023-02-02T05:58:55.406Z,6.20
2023-02-02T06:01:22.499Z,6.10
2023-02-02T06:03:49.567Z,6.10
2023-02-02T06:06:16.652Z,6.10
2023-02-02T06:08:43.608Z,6.10
2023-02-02T06:11:12.519Z,6.10
2023-02-02T06:13:39.581Z,6.10
2023-02-02T06:16:07.249Z,6.10
2023-02-02T06:18:35.591Z,6.10
2023-02-02T06:21:07.410Z,6.10
2023-02-02T06:23:37.569Z,6.10
2023-02-02T06:26:08.305Z,6.10
2023-02-02T06:28:35.355Z,6.10
2023-02-02T06:31:07.526Z,6.10
2023-02-02T06:33:34.601Z,6.10
2023-02-02T06:36:03.303Z,6.10
2023-02-02T06:38:37.572Z,6.10
2023-02-02T06:41:04.894Z,6.00
2023-02-02T06:43:31.979Z,6.10
2023-02-02T06:45:59.403Z,6.10
2023-02-02T06:48:29.581Z,6.00
2023-02-02T06:51:00.483Z,6.10
2023-02-02T06:53:31.586Z,6.00
2023-02-02T06:56:01.068Z,6.10
2023-02-02T06:58:28.909Z,6.10
2023-02-02T07:00:55.973Z,6.10
2023-02-02T07:03:23.156Z,6.10
2023-02-02T07:05:50.295Z,6.00
2023-02-02T07:08:17.649Z,6.10
2023-02-02T07:11:10.941Z,6.00
2023-02-02T07:13:31.987Z,6.10
2023-02-02T07:15:59.135Z,6.10
2023-02-02T07:18:26.277Z,6.10
2023-02-02T07:20:53.325Z,6.10
2023-02-02T07:23:23.348Z,6.10
2023-02-02T07:25:50.546Z,6.10
2023-02-02T07:28:17.533Z,6.10
2023-02-02T07:30:44.778Z,6.10
2023-02-02T07:33:15.209Z,6.10
2023-02-02T07:35:42.280Z,6.10
2023-02-02T07:38:09.307Z,6.10
2023-02-02T07:40:36.315Z,6.10
2023-02-02T07:43:03.983Z,6.10
2023-02-02T07:45:31.413Z,6.10
2023-02-02T07:48:01.317Z,6.10
2023-02-02T07:50:29.961Z,6.10
2023-02-02T07:52:59.065Z,6.20
2023-02-02T07:55:26.090Z,6.10
2023-02-02T07:57:55.541Z,6.10
2023-02-02T08:00:23.308Z,6.10
2023-02-02T08:05:30.839Z,6.10
2023-02-02T08:07:57.965Z,6.20
2023-02-02T08:10:24.913Z,6.20
2023-02-02T08:15:21.279Z,6.20
2023-02-02T08:17:52.116Z,6.20
2023-02-02T08:22:51.834Z,6.30
2023-02-02T08:25:18.852Z,6.30
2023-02-02T08:27:45.828Z,6.30
2023-02-02T08:30:13.736Z,6.30
2023-02-02T08:32:40.747Z,6.30
2023-02-02T08:35:08.177Z,6.40
2023-02-02T08:37:35.251Z,6.40
2023-02-02T08:40:02.291Z,6.40
2023-02-02T08:42:29.327Z,6.40
2023-02-02T08:46:01.237Z,6.40
2023-02-02T08:47:43.283Z,6.40
2023-02-02T08:50:11.220Z,6.40
2023-02-02T08:52:38.275Z,6.50
2023-02-02T08:55:07.164Z,6.50
2023-02-02T08:57:34.596Z,6.50
2023-02-02T09:00:01.671Z,6.50
2023-02-02T09:02:28.740Z,6.60
2023-02-02T09:04:56.026Z,6.60
2023-02-02T09:07:23.005Z,6.70
2023-02-02T09:09:51.840Z,6.70
2023-02-02T09:12:18.725Z,6.70
2023-02-02T09:14:45.628Z,6.80
2023-02-02T09:17:12.678Z,6.80
2023-02-02T09:19:39.750Z,6.90
2023-02-02T09:22:06.660Z,6.90
2023-02-02T09:24:33.669Z,6.90
2023-02-02T09:27:00.732Z,7.00
2023-02-02T09:29:27.829Z,7.00
2023-02-02T09:31:54.950Z,6.90
2023-02-02T09:34:22.048Z,7.00
2023-02-02T09:36:52.335Z,7.00
2023-02-02T09:39:20.597Z,7.00
2023-02-02T09:42:08.391Z,7.10
2023-02-02T09:45:11.578Z,7.10
2023-02-02T09:47:44.401Z,7.20
2023-02-02T09:50:24.421Z,7.20
2023-02-02T09:53:13.023Z,7.20
2023-02-02T09:55:43.962Z,7.20
2023-02-02T09:58:18.798Z,7.20
2023-02-02T10:01:15.357Z,7.20
2023-02-02T10:04:05.626Z,7.30
2023-02-02T10:06:49.260Z,7.40
2023-02-02T10:09:21.405Z,7.50
2023-02-02T10:11:58.922Z,7.50
2023-02-02T10:14:35.525Z,7.50
2023-02-02T10:17:28.069Z,7.50
2023-02-02T10:20:06.716Z,7.50
2023-02-02T10:22:34.918Z,7.50
2023-02-02T10:25:02.057Z,7.60
2023-02-02T10:27:38.909Z,7.70
2023-02-02T10:30:15.546Z,7.80
2023-02-02T10:33:01.246Z,7.80
2023-02-02T10:35:30.732Z,7.90
2023-02-02T10:38:17.741Z,7.80
2023-02-02T10:40:56.867Z,7.80
2023-02-02T10:43:54.607Z,7.80
2023-02-02T10:46:27.696Z,7.70
2023-02-02T10:49:20.958Z,7.70
2023-02-02T10:51:58.188Z,7.70
2023-02-02T10:54:57.147Z,7.70
2023-02-02T10:57:53.836Z,7.70
2023-02-02T11:00:40.568Z,7.60
2023-02-02T11:03:10.681Z,7.70
2023-02-02T11:05:57.072Z,7.70
2023-02-02T11:08:32.715Z,7.70
2023-02-02T11:11:21.058Z,7.70
2023-02-02T11:14:04.069Z,7.70
2023-02-02T11:16:42.774Z,7.60
2023-02-02T11:19:22.305Z,7.60
2023-02-02T11:22:01.746Z,7.60
2023-02-02T11:25:00.287Z,7.70
2023-02-02T11:27:33.880Z,7.70
2023-02-02T11:30:13.005Z,7.70
2023-02-02T11:32:40.003Z,7.70
2023-02-02T11:35:07.090Z,7.70
2023-02-02T11:37:38.653Z,7.70
2023-02-02T11:40:29.878Z,7.70
2023-02-02T11:42:59.335Z,7.70
2023-02-02T11:45:41.322Z,7.70
2023-02-02T11:48:19.011Z,7.70
2023-02-02T11:50:55.588Z,7.70
2023-02-02T11:53:27.174Z,7.70
2023-02-02T11:55:56.360Z,7.70
2023-02-02T11:58:29.616Z,7.70
2023-02-02T12:01:00.136Z,7.70
2023-02-02T12:03:38.960Z,7.70
2023-02-02T12:06:39.212Z,7.70
2023-02-02T12:09:13.785Z,7.70
2023-02-02T12:11:42.825Z,7.60
2023-02-02T12:14:39.130Z,7.60
2023-02-02T12:17:28.121Z,7.70
2023-02-02T12:19:57.963Z,7.70
2023-02-02T12:22:30.773Z,7.70
2023-02-02T12:25:13.289Z,7.70
2023-02-02T12:27:51.495Z,7.80
2023-02-02T12:30:28.152Z,7.70
2023-02-02T12:33:10.001Z,7.80
2023-02-02T12:35:48.306Z,7.80
2023-02-02T12:38:29.091Z,7.80
2023-02-02T12:41:27.014Z,7.70
2023-02-02T12:44:10.010Z,7.70
2023-02-02T12:46:45.792Z,7.70
2023-02-02T12:49:34.305Z,7.70
2023-02-02T12:52:29.081Z,7.70
2023-02-02T12:55:07.956Z,7.70
2023-02-02T12:57:40.645Z,7.70
2023-02-02T13:00:26.443Z,7.70
2023-02-02T13:03:24.631Z,7.70
2023-02-02T13:09:17.848Z,7.60
2023-02-02T13:12:01.121Z,7.60
2023-02-02T13:14:35.675Z,7.60
2023-02-02T13:17:26.814Z,7.60
2023-02-02T13:19:59.228Z,7.70
2023-02-02T13:22:32.290Z,7.70
2023-02-02T13:25:02.475Z,7.60
2023-02-02T13:27:30.693Z,7.60
2023-02-02T13:30:17.882Z,7.60
2023-02-02T13:32:46.834Z,7.60
2023-02-02T13:35:24.817Z,7.60
2023-02-02T13:37:55.691Z,7.60
2023-02-02T13:40:36.576Z,7.60
2023-02-02T13:43:40.267Z,7.60
2023-02-02T13:46:19.413Z,7.60
2023-02-02T13:49:15.462Z,7.60
2023-02-02T13:51:55.058Z,7.70
2023-02-02T13:54:40.403Z,7.60
2023-02-02T13:57:41.326Z,7.60
2023-02-02T14:00:22.060Z,7.60
2023-02-02T14:02:58.544Z,7.60
2023-02-02T14:05:40.572Z,7.60
2023-02-02T14:08:24.434Z,7.60
2023-02-02T14:10:54.616Z,7.50
2023-02-02T14:14:08.758Z,7.50
2023-02-02T14:16:35.700Z,7.50
2023-02-02T14:19:08.357Z,7.40
2023-02-02T14:21:38.379Z,7.40
2023-02-02T14:24:14.495Z,7.40
2023-02-02T14:26:53.587Z,7.40
2023-02-02T14:29:32.637Z,7.40
2023-02-02T14:32:04.596Z,7.40
2023-02-02T14:34:40.751Z,7.40
2023-02-02T14:37:23.058Z,7.40
2023-02-02T14:39:58.136Z,7.40
2023-02-02T14:43:06.740Z,7.40
2023-02-02T14:45:39.279Z,7.40
2023-02-02T14:48:23.811Z,7.30
2023-02-02T14:50:54.819Z,7.30
2023-02-02T14:53:28.691Z,7.30
2023-02-02T14:56:10.460Z,7.30
2023-02-02T14:58:47.974Z,7.30
2023-02-02T15:01:18.121Z,7.30
2023-02-02T15:03:56.134Z,7.30
2023-02-02T15:06:23.037Z,7.30
2023-02-02T15:09:03.191Z,7.30
2023-02-02T15:11:50.055Z,7.40
2023-02-02T15:14:19.825Z,7.40
2023-02-02T15:16:47.588Z,7.40
2023-02-02T15:19:22.152Z,7.40
2023-02-02T15:21:51.355Z,7.40
2023-02-02T15:24:22.951Z,7.40
2023-02-02T15:26:51.206Z,7.40
2023-02-02T15:29:32.572Z,7.40
2023-02-02T15:32:00.539Z,7.50
2023-02-02T15:34:37.682Z,7.40
2023-02-02T15:37:12.447Z,7.50
2023-02-02T15:40:03.349Z,7.50
2023-02-02T15:42:52.888Z,7.50
2023-02-02T15:45:39.279Z,7.60
2023-02-02T15:48:10.414Z,7.60
2023-02-02T15:50:46.400Z,7.70
2023-02-02T15:53:18.569Z,7.70
2023-02-02T15:55:45.810Z,7.80
2023-02-02T15:58:30.067Z,7.80
2023-02-02T16:01:00.336Z,7.80
2023-02-02T16:03:43.534Z,7.80
2023-02-02T16:06:10.795Z,7.80
2023-02-02T16:08:40.030Z,7.90
2023-02-02T16:11:20.032Z,7.90
2023-02-02T16:14:04.132Z,7.90
2023-02-02T16:16:36.389Z,7.90
2023-02-02T16:19:19.363Z,7.90
2023-02-02T16:21:52.096Z,7.90
2023-02-02T16:24:28.109Z,7.90
2023-02-02T16:27:00.261Z,7.90
2023-02-02T16:29:28.291Z,7.90
2023-02-02T16:31:56.647Z,7.90
2023-02-02T16:34:42.231Z,7.90
2023-02-02T16:37:27.514Z,7.90
2023-02-02T16:39:56.480Z,7.90
2023-02-02T16:42:33.630Z,7.90
2023-02-02T16:45:01.262Z,7.90
2023-02-02T16:50:07.733Z,7.90
2023-02-02T16:52:37.589Z,7.90
2023-02-02T16:55:09.949Z,7.90
2023-02-02T16:57:37.109Z,8.00
2023-02-02T17:00:07.322Z,8.00
2023-02-02T17:02:38.824Z,7.90
2023-02-02T17:05:14.522Z,8.00
2023-02-02T17:07:50.671Z,8.00
2023-02-02T17:10:17.514Z,8.00
2023-02-02T17:12:48.651Z,8.00
2023-02-02T17:15:17.127Z,8.00
2023-02-02T17:17:47.798Z,8.00
2023-02-02T17:20:16.427Z,8.00
2023-02-02T17:22:50.317Z,8.10
2023-02-02T17:25:21.465Z,8.10
2023-02-02T17:30:28.306Z,8.10
2023-02-02T17:32:55.324Z,8.10
2023-02-02T17:35:25.573Z,8.10
2023-02-02T17:37:53.673Z,8.10
2023-02-02T17:40:23.262Z,8.10
2023-02-02T17:42:52.689Z,8.10
2023-02-02T17:45:21.140Z,8.10
2023-02-02T17:47:48.168Z,8.10
2023-02-02T17:52:46.035Z,8.10
2023-02-02T17:55:22.529Z,8.10
2023-02-02T17:57:50.510Z,8.10
2023-02-02T18:00:19.186Z,8.10
2023-02-02T18:02:47.419Z,8.10
2023-02-02T18:05:16.439Z,8.10
2023-02-02T18:07:44.245Z,8.10
2023-02-02T18:10:13.431Z,8.10
2023-02-02T18:12:40.893Z,8.10
2023-02-02T18:15:11.820Z,8.10
2023-02-02T18:17:38.816Z,8.10
2023-02-02T18:20:06.316Z,8.10
2023-02-02T18:22:33.347Z,8.10
2023-02-02T18:25:00.351Z,8.20
2023-02-02T18:27:29.817Z,8.20
2023-02-02T18:29:56.834Z,8.20
2023-02-02T18:32:23.742Z,8.20
2023-02-02T18:34:55.439Z,8.20
2023-02-02T18:37:24.063Z,8.20
2023-02-02T18:39:51.920Z,8.20
2023-02-02T18:42:18.968Z,8.20
2023-02-02T18:44:46.029Z,8.20
2023-02-02T18:47:13.008Z,8.30
2023-02-02T18:49:39.965Z,8.30
2023-02-02T18:52:07.366Z,8.30
2023-02-02T18:54:35.701Z,8.30
2023-02-02T18:57:02.791Z,8.30
2023-02-02T18:59:29.760Z,8.30
2023-02-02T19:01:56.826Z,8.30
2023-02-02T19:04:23.833Z,8.30
2023-02-02T19:07:09.234Z,8.30
2023-02-02T19:09:36.263Z,8.30
2023-02-02T19:12:10.985Z,8.40
2023-02-02T19:14:38.647Z,8.40
2023-02-02T19:17:14.573Z,8.40
2023-02-02T19:19:42.991Z,8.40
2023-02-02T19:22:19.884Z,8.40
2023-02-02T19:24:47.321Z,8.40
2023-02-02T19:27:23.756Z,8.40
2023-02-02T19:29:53.823Z,8.40
2023-02-02T19:32:23.639Z,8.40
2023-02-02T19:34:55.410Z,8.40
2023-02-02T19:37:31.147Z,8.50
2023-02-02T19:40:19.221Z,8.50
2023-02-02T19:42:49.376Z,8.50
2023-02-02T19:45:29.881Z,8.60
2023-02-02T19:47:58.235Z,8.60
2023-02-02T19:50:28.210Z,8.60
2023-02-02T19:52:56.264Z,8.60
2023-02-02T19:55:23.470Z,8.60
2023-02-02T19:57:52.458Z,8.60
2023-02-02T20:00:27.137Z,8.70
2023-02-02T20:03:00.081Z,8.70
2023-02-02T20:05:47.413Z,8.70
2023-02-02T20:08:33.086Z,8.80
2023-02-02T20:11:06.284Z,8.80
2023-02-02T20:13:46.608Z,8.80
2023-02-02T20:16:20.351Z,8.90
2023-02-02T20:18:53.681Z,8.90
2023-02-02T20:21:43.872Z,8.90
2023-02-02T20:24:27.872Z,8.90
2023-02-02T20:26:59.580Z,8.90
2023-02-02T20:29:37.805Z,9.00
2023-02-02T20:32:08.104Z,9.00
2023-02-02T20:34:43.581Z,9.00
2023-02-02T20:37:13.274Z,9.00
2023-02-02T20:39:48.309Z,9.00
2023-02-02T20:42:15.723Z,9.00
2023-02-02T20:44:43.178Z,9.00
2023-02-02T20:47:10.269Z,9.00
2023-02-02T20:49:37.840Z,9.00
2023-02-02T20:52:11.093Z,9.10
2023-02-02T20:54:39.386Z,9.00
2023-02-02T20:57:06.966Z,9.00
2023-02-02T20:59:33.914Z,9.00
2023-02-02T21:02:01.171Z,9.00
2023-02-02T21:04:28.648Z,9.10
2023-02-02T21:06:55.605Z,9.10
2023-02-02T21:09:23.007Z,9.10
2023-02-02T21:11:49.998Z,9.10
2023-02-02T21:14:17.098Z,9.10
2023-02-02T21:16:44.638Z,9.10
2023-02-02T21:19:14.614Z,9.10
2023-02-02T21:21:41.824Z,9.10
2023-02-02T21:24:08.866Z,9.10
2023-02-02T21:26:35.886Z,9.10
2023-02-02T21:29:03.542Z,9.10
2023-02-02T21:31:35.099Z,9.10
2023-02-02T21:34:02.709Z,9.10
2023-02-02T21:36:43.400Z,9.10
2023-02-02T21:39:37.377Z,9.10
2023-02-02T21:42:15.011Z,9.10
2023-02-02T21:44:45.900Z,9.10
2023-02-02T21:47:31.200Z,9.10
2023-02-02T21:50:02.876Z,9.20
2023-02-02T21:52:33.768Z,9.20
2023-02-02T21:55:16.859Z,9.20
2023-02-02T21:57:44.511Z,9.30
2023-02-02T22:00:23.132Z,9.30
2023-02-02T22:02:51.164Z,9.30
2023-02-02T22:05:24.301Z,9.40
2023-02-02T22:07:53.445Z,9.40
2023-02-02T22:10:36.621Z,9.50
2023-02-02T22:15:58.248Z,9.50
2023-02-02T22:18:27.681Z,9.40
2023-02-02T22:20:58.614Z,9.40
2023-02-02T22:23:27.772Z,9.50
2023-02-02T22:25:56.689Z,9.50
2023-02-02T22:28:40.270Z,9.50
2023-02-02T22:31:07.308Z,9.50
2023-02-02T22:33:34.279Z,9.50
2023-02-02T22:36:01.246Z,9.40
2023-02-02T22:38:28.237Z,9.40
2023-02-02T22:40:59.125Z,9.40
2023-02-02T22:43:26.118Z,9.40
2023-02-02T22:45:53.191Z,9.40
2023-02-02T22:48:20.169Z,9.40
2023-02-02T22:50:47.276Z,9.40
2023-02-02T22:53:15.559Z,9.30
2023-02-02T22:55:43.462Z,9.30
2023-02-02T22:58:13.653Z,9.30
2023-02-02T23:00:46.637Z,9.40
2023-02-02T23:03:13.583Z,9.40
2023-02-02T23:05:40.549Z,9.40
2023-02-02T23:08:08.034Z,9.40
2023-02-02T23:10:35.916Z,9.40
2023-02-02T23:13:04.645Z,9.40
2023-02-02T23:15:31.917Z,9.50
2023-02-02T23:17:59.254Z,9.50
2023-02-02T23:20:26.506Z,9.50
2023-02-02T23:22:53.668Z,9.50
2023-02-02T23:25:22.017Z,9.40
2023-02-02T23:27:49.238Z,9.40
2023-02-02T23:30:16.347Z,9.40
2023-02-02T23:32:43.426Z,9.50
2023-02-02T23:35:11.128Z,9.50
2023-02-02T23:37:38.497Z,9.50
2023-02-02T23:40:06.048Z,9.40
2023-02-02T23:42:33.814Z,9.40
2023-02-02T23:45:03.666Z,9.40
2023-02-02T23:47:34.855Z,9.40
2023-02-02T23:50:07.531Z,9.40
2023-02-02T23:52:37.861Z,9.30
2023-02-02T23:55:05.843Z,9.40
2023-02-02T23:57:36.725Z,9.40
